Time;durP1;ratioP1;P1;durP2;ratioP2;P2;SDS_P1;SDS_P2;PMS_P1;PMS_P2;Temp;Humidity;BMP_temperature;BMP_pressure;BME280_temperature;BME280_humidity;BME280_pressure;Samples;Min_cycle;Max_cycle;Signal;HPM_P1;HPM_P2
2022/04/27 00:00:19;;;;;;;5.63;3.63;;;9.20;99.90;;;;;;4166136;28;20838;-80
2022/04/27 00:02:20;;;;;;;7.23;4.40;;;9.20;99.90;;;;;;4165613;28;20481;-81
2022/04/27 00:04:22;;;;;;;7.07;4.23;;;10.10;99.90;;;;;;4158816;28;20523;-80
2022/04/27 00:06:24;;;;;;;7.50;4.20;;;9.10;99.90;;;;;;4153540;28;20455;-80
2022/04/27 00:08:27;;;;;;;7.30;4.50;;;9.10;99.90;;;;;;4162073;28;20211;-80
2022/04/27 00:10:29;;;;;;;6.43;4.37;;;9.10;99.90;;;;;;4167816;28;20515;-80
2022/04/27 00:12:30;;;;;;;8.73;4.30;;;9.00;99.90;;;;;;4166899;28;20482;-80
2022/04/27 00:14:33;;;;;;;8.07;4.50;;;9.00;99.90;;;;;;4162670;28;20475;-80
2022/04/27 00:16:35;;;;;;;7.57;4.50;;;9.00;99.90;;;;;;4163183;28;20514;-80
2022/04/27 00:18:37;;;;;;;7.63;4.80;;;9.00;99.90;;;;;;4163261;28;20480;-80
2022/04/27 00:20:38;;;;;;;7.40;4.33;;;9.00;99.90;;;;;;4164794;28;20493;-81
2022/04/27 00:22:40;;;;;;;6.07;3.87;;;9.00;99.90;;;;;;4161276;28;20477;-80
2022/04/27 00:24:43;;;;;;;7.63;4.23;;;9.00;99.90;;;;;;4167061;28;20454;-80
2022/04/27 00:26:46;;;;;;;6.47;4.20;;;8.80;99.90;;;;;;4156184;28;20881;-80
2022/04/27 00:28:47;;;;;;;6.20;4.27;;;8.90;99.90;;;;;;4157019;28;20479;-80
2022/04/27 00:30:49;;;;;;;7.27;4.67;;;8.90;99.90;;;;;;4158173;28;20469;-81
2022/04/27 00:32:51;;;;;;;7.30;4.53;;;8.90;99.90;;;;;;4165510;28;20478;-80
2022/04/27 00:34:53;;;;;;;9.60;4.63;;;8.90;99.90;;;;;;4157402;28;20466;-80
2022/04/27 00:36:54;;;;;;;6.67;4.03;;;8.80;99.90;;;;;;4157453;28;20490;-80
2022/04/27 00:38:56;;;;;;;8.27;4.47;;;9.00;99.90;;;;;;4164188;28;20465;-80
2022/04/27 00:40:59;;;;;;;6.93;4.53;;;8.80;99.90;;;;;;4164108;28;20273;-81
2022/04/27 00:43:01;;;;;;;6.60;4.37;;;8.80;99.90;;;;;;4161926;28;20297;-80
2022/04/27 00:45:03;;;;;;;7.17;4.73;;;8.80;99.90;;;;;;4160392;28;20453;-80
2022/04/27 00:47:08;;;;;;;6.87;4.17;;;8.80;99.90;;;;;;4162252;28;20227;-80
2022/04/27 00:49:09;;;;;;;9.60;4.40;;;8.70;99.90;;;;;;4166447;28;20980;-80
2022/04/27 00:51:14;;;;;;;7.30;4.13;;;8.70;99.90;;;;;;4164554;28;20461;-81
2022/04/27 00:53:16;;;;;;;6.07;3.90;;;8.70;99.90;;;;;;4166058;28;20478;-79
2022/04/27 00:55:18;;;;;;;7.70;4.30;;;8.70;99.90;;;;;;4167298;28;20489;-80
2022/04/27 00:57:23;;;;;;;8.50;4.70;;;8.60;99.90;;;;;;4164201;28;20506;-79
2022/04/27 00:59:25;;;;;;;8.33;4.40;;;9.20;99.90;;;;;;4164821;28;20466;-80
2022/04/27 01:01:26;;;;;;;7.27;4.33;;;8.60;99.90;;;;;;4166649;28;20462;-80
2022/04/27 01:03:28;;;;;;;6.10;4.20;;;8.60;99.90;;;;;;4165063;28;20477;-80
2022/04/27 01:05:30;;;;;;;6.13;4.20;;;8.80;99.90;;;;;;4166361;28;20473;-80
2022/04/27 01:07:32;;;;;;;7.60;4.63;;;8.60;99.90;;;;;;4166292;28;20214;-78
2022/04/27 01:09:35;;;;;;;6.63;4.30;;;8.50;99.90;;;;;;4168119;28;20462;-79
2022/04/27 01:11:37;;;;;;;7.77;4.40;;;8.50;99.90;;;;;;4167171;28;20466;-78
2022/04/27 01:13:40;;;;;;;6.17;4.33;;;8.40;99.90;;;;;;4163936;28;20928;-78
2022/04/27 01:15:42;;;;;;;8.17;4.07;;;8.40;99.90;;;;;;4164740;28;20840;-79
2022/04/27 01:17:45;;;;;;;8.83;4.50;;;8.40;99.90;;;;;;4164624;28;20468;-79
2022/04/27 01:19:47;;;;;;;8.23;4.33;;;8.40;99.90;;;;;;4171744;28;20476;-80
2022/04/27 01:21:50;;;;;;;6.63;4.17;;;8.40;99.90;;;;;;4163249;28;20498;-79
2022/04/27 01:23:53;;;;;;;7.70;4.00;;;8.30;99.90;;;;;;4163311;28;20490;-78
2022/04/27 01:25:57;;;;;;;6.80;4.03;;;9.10;99.90;;;;;;4166607;28;20500;-81
2022/04/27 01:27:58;;;;;;;6.83;4.10;;;8.30;99.90;;;;;;4171812;28;20514;-81
2022/04/27 01:30:00;;;;;;;6.63;4.23;;;8.00;99.90;;;;;;4164577;28;20450;-79
2022/04/27 01:32:02;;;;;;;7.97;4.23;;;8.30;99.90;;;;;;4161253;28;20516;-78
2022/04/27 01:34:04;;;;;;;7.57;4.47;;;8.70;99.90;;;;;;4158153;28;20477;-78
2022/04/27 01:36:07;;;;;;;6.80;4.27;;;8.20;99.90;;;;;;4158509;28;20865;-78
2022/04/27 01:38:10;;;;;;;8.97;4.30;;;8.20;99.90;;;;;;4160572;28;20527;-80
2022/04/27 01:40:12;;;;;;;6.87;4.47;;;8.20;99.90;;;;;;4163261;28;21012;-79
2022/04/27 01:42:15;;;;;;;6.97;4.00;;;8.20;99.90;;;;;;4162049;28;20478;-79
2022/04/27 01:44:17;;;;;;;7.30;4.37;;;9.30;99.90;;;;;;4163761;28;20489;-79
2022/04/27 01:46:18;;;;;;;8.93;4.53;;;8.10;99.90;;;;;;4164708;28;20465;-78
2022/04/27 01:48:21;;;;;;;6.10;4.13;;;8.40;99.90;;;;;;4156758;28;20459;-79
2022/04/27 01:50:22;;;;;;;6.73;4.60;;;8.00;99.90;;;;;;4161587;28;20462;-80
2022/04/27 01:54:45;;;;;;;7.30;4.40;;;8.00;99.90;;;;;;4156540;28;21027;-79
2022/04/27 01:56:48;;;;;;;7.50;4.47;;;8.00;99.90;;;;;;4163840;28;20493;-79
2022/04/27 01:58:49;;;;;;;6.67;4.43;;;7.90;99.90;;;;;;4160709;28;20535;-79
2022/04/27 02:00:51;;;;;;;9.00;4.60;;;7.90;99.90;;;;;;4152570;28;20528;-80
2022/04/27 02:02:54;;;;;;;6.77;4.00;;;7.90;99.90;;;;;;4152183;28;20502;-80
2022/04/27 02:04:56;;;;;;;9.40;4.50;;;7.90;99.90;;;;;;4154150;28;20989;-79
2022/04/27 02:06:58;;;;;;;8.20;4.30;;;7.80;99.90;;;;;;4158263;28;20469;-80
2022/04/27 02:08:59;;;;;;;8.00;4.53;;;7.80;99.90;;;;;;4161193;28;20516;-79
2022/04/27 02:11:03;;;;;;;7.83;4.20;;;7.80;99.90;;;;;;4163956;28;20504;-80
2022/04/27 02:13:05;;;;;;;7.17;4.53;;;7.80;99.90;;;;;;4161748;28;20520;-80
2022/04/27 02:15:09;;;;;;;6.80;4.43;;;7.80;99.90;;;;;;4159327;28;20458;-80
2022/04/27 02:17:10;;;;;;;8.73;4.60;;;7.80;99.90;;;;;;4151873;28;20497;-80
2022/04/27 02:19:13;;;;;;;7.70;4.60;;;7.80;99.90;;;;;;4148053;28;20549;-80
2022/04/27 02:21:14;;;;;;;7.73;4.63;;;7.80;99.90;;;;;;4153406;28;20516;-80
2022/04/27 02:23:20;;;;;;;9.57;4.60;;;7.80;99.90;;;;;;4148323;28;20466;-80
2022/04/27 02:25:22;;;;;;;7.20;4.60;;;7.80;99.90;;;;;;4156037;28;20473;-80
2022/04/27 02:27:25;;;;;;;8.27;4.53;;;7.80;99.90;;;;;;4156921;28;20575;-80
2022/04/27 02:29:28;;;;;;;12.33;4.40;;;7.80;99.90;;;;;;4159257;28;20478;-80
2022/04/27 02:31:29;;;;;;;8.53;4.87;;;7.90;99.90;;;;;;4160369;28;20536;-80
2022/04/27 02:33:32;;;;;;;8.17;4.43;;;7.80;99.90;;;;;;4163526;28;20541;-80
2022/04/27 02:35:33;;;;;;;7.70;4.30;;;7.80;99.90;;;;;;4163049;28;20466;-80
2022/04/27 02:37:36;;;;;;;9.30;4.90;;;7.80;99.90;;;;;;4155919;28;20508;-79
2022/04/27 02:39:37;;;;;;;6.57;4.67;;;7.80;99.90;;;;;;4155756;28;20488;-79
2022/04/27 02:41:40;;;;;;;6.27;4.53;;;7.80;99.90;;;;;;4162871;28;20476;-79
2022/04/27 02:43:44;;;;;;;6.87;4.33;;;7.80;99.90;;;;;;4156597;28;20536;-79
2022/04/27 02:45:45;;;;;;;8.77;4.47;;;7.80;99.90;;;;;;4156732;28;20489;-80
2022/04/27 02:47:47;;;;;;;7.70;4.60;;;7.80;99.90;;;;;;4167479;28;20461;-79
2022/04/27 02:52:07;;;;;;;6.43;4.30;;;7.80;99.90;;;;;;4160429;28;20534;-80
2022/04/27 02:54:09;;;;;;;7.90;4.50;;;7.80;99.90;;;;;;4160667;28;20452;-80
2022/04/27 02:56:11;;;;;;;7.93;4.90;;;7.80;99.90;;;;;;4161350;28;20469;-80
2022/04/27 02:58:13;;;;;;;7.73;4.67;;;7.80;99.90;;;;;;4160842;28;20485;-79
2022/04/27 03:00:16;;;;;;;8.67;4.80;;;7.80;99.90;;;;;;4161752;28;20815;-81
2022/04/27 03:02:18;;;;;;;8.33;5.47;;;7.70;99.90;;;;;;4165203;28;21063;-81
2022/04/27 03:04:20;;;;;;;7.63;4.70;;;7.70;99.90;;;;;;4156573;28;20903;-80
2022/04/27 03:06:22;;;;;;;8.97;5.00;;;7.70;99.90;;;;;;4163868;28;20473;-79
2022/04/27 03:08:23;;;;;;;8.13;4.47;;;7.70;99.90;;;;;;4157514;28;20540;-80
2022/04/27 03:10:25;;;;;;;7.33;4.67;;;7.70;99.90;;;;;;4167828;28;20472;-80
2022/04/27 03:12:27;;;;;;;8.80;4.87;;;7.70;99.90;;;;;;4164280;28;20480;-80
2022/04/27 03:14:29;;;;;;;7.73;4.63;;;7.70;99.90;;;;;;4163921;28;20962;-80
2022/04/27 03:16:32;;;;;;;7.03;4.67;;;7.70;99.90;;;;;;4159051;28;20492;-81
2022/04/27 03:18:34;;;;;;;8.17;4.60;;;7.70;99.90;;;;;;4162919;28;20507;-80
2022/04/27 03:20:36;;;;;;;6.97;4.43;;;7.70;99.90;;;;;;4161208;28;20892;-80
2022/04/27 03:22:37;;;;;;;11.53;4.73;;;7.70;99.90;;;;;;4160178;28;20555;-80
2022/04/27 03:24:39;;;;;;;7.53;4.67;;;7.70;99.90;;;;;;4158826;28;20471;-80
2022/04/27 03:26:41;;;;;;;7.80;5.03;;;7.70;99.90;;;;;;4160808;28;20452;-80
2022/04/27 03:28:43;;;;;;;8.97;4.67;;;7.70;99.90;;;;;;4166334;28;20805;-80
2022/04/27 03:30:44;;;;;;;8.37;4.80;;;7.70;99.90;;;;;;4162557;28;20879;-80
2022/04/27 03:32:47;;;;;;;10.80;5.13;;;7.70;99.90;;;;;;4159794;28;20512;-80
2022/04/27 03:34:49;;;;;;;7.57;5.50;;;7.90;99.90;;;;;;4161402;28;20465;-80
2022/04/27 03:36:51;;;;;;;9.47;5.07;;;7.80;99.90;;;;;;4158952;28;20952;-79
2022/04/27 03:38:53;;;;;;;9.43;5.20;;;7.80;99.90;;;;;;4165415;28;20516;-80
2022/04/27 03:40:54;;;;;;;9.70;5.33;;;7.70;99.90;;;;;;4165733;28;20496;-80
2022/04/27 03:42:56;;;;;;;9.13;5.00;;;7.70;99.90;;;;;;4159422;28;20543;-80
2022/04/27 03:44:58;;;;;;;9.67;5.20;;;7.70;99.90;;;;;;4160764;28;20469;-80
2022/04/27 03:46:59;;;;;;;8.43;5.27;;;7.70;99.90;;;;;;4162478;28;20881;-79
2022/04/27 03:49:02;;;;;;;7.20;4.63;;;7.80;99.90;;;;;;4159126;28;20472;-80
2022/04/27 03:51:04;;;;;;;7.30;4.77;;;7.80;99.90;;;;;;4156448;28;20477;-80
2022/04/27 03:53:06;;;;;;;8.77;5.00;;;7.70;99.90;;;;;;4158751;28;20599;-80
2022/04/27 03:55:09;;;;;;;7.30;4.83;;;7.70;99.90;;;;;;4154704;28;20644;-80
2022/04/27 03:57:10;;;;;;;8.47;4.77;;;7.70;99.90;;;;;;4156786;28;21084;-80
2022/04/27 03:59:12;;;;;;;7.70;5.00;;;7.70;99.90;;;;;;4153312;28;20478;-80
2022/04/27 04:01:14;;;;;;;7.47;4.83;;;7.80;99.90;;;;;;4154123;28;20496;-80
2022/04/27 04:03:15;;;;;;;9.27;4.90;;;7.70;99.90;;;;;;4161118;28;21001;-80
2022/04/27 04:05:19;;;;;;;7.50;4.90;;;7.70;99.90;;;;;;4158980;28;20477;-80
2022/04/27 04:07:20;;;;;;;12.53;5.50;;;7.70;99.90;;;;;;4152819;28;20463;-80
2022/04/27 04:09:22;;;;;;;7.03;5.07;;;7.80;99.90;;;;;;4162619;28;20468;-80
2022/04/27 04:11:24;;;;;;;8.10;5.27;;;7.80;99.90;;;;;;4158347;28;20477;-80
2022/04/27 04:13:25;;;;;;;7.40;4.97;;;7.80;99.90;;;;;;4160411;28;20519;-79
2022/04/27 04:15:28;;;;;;;9.97;6.03;;;7.80;99.90;;;;;;4165614;28;20461;-80
2022/04/27 04:17:29;;;;;;;10.30;6.00;;;7.80;99.90;;;;;;4164555;28;20552;-80
2022/04/27 04:19:32;;;;;;;8.43;5.17;;;7.80;99.90;;;;;;4161806;28;20865;-80
2022/04/27 04:21:35;;;;;;;10.33;6.30;;;8.10;99.90;;;;;;4158974;28;21011;-79
2022/04/27 04:23:37;;;;;;;9.20;5.33;;;7.90;99.90;;;;;;4154725;28;20965;-80
2022/04/27 04:30:18;;;;;;;12.17;5.43;;;7.90;99.90;;;;;;4162975;28;20456;-80
2022/04/27 04:32:19;;;;;;;10.03;5.50;;;7.90;99.90;;;;;;4169560;28;20500;-81
2022/04/27 04:34:21;;;;;;;9.47;5.80;;;7.90;99.90;;;;;;4155093;28;20498;-81
2022/04/27 04:36:23;;;;;;;8.90;5.60;;;7.90;99.90;;;;;;4161546;28;20457;-80
2022/04/27 04:38:26;;;;;;;9.00;5.23;;;7.90;99.90;;;;;;4156041;28;20492;-81
2022/04/27 04:40:28;;;;;;;8.63;4.90;;;7.90;99.90;;;;;;4162322;28;20466;-81
2022/04/27 04:42:29;;;;;;;8.87;5.20;;;8.00;99.90;;;;;;4155989;28;20538;-80
2022/04/27 04:44:31;;;;;;;8.43;5.10;;;7.90;99.90;;;;;;4164914;28;20492;-80
2022/04/27 04:46:33;;;;;;;12.97;5.87;;;8.00;99.90;;;;;;4155817;28;20465;-80
2022/04/27 04:48:34;;;;;;;8.43;5.43;;;8.00;99.90;;;;;;4157026;28;21049;-80
2022/04/27 04:50:36;;;;;;;10.03;6.00;;;8.00;99.90;;;;;;4160455;28;20892;-80
2022/04/27 04:52:38;;;;;;;8.87;6.20;;;8.00;99.90;;;;;;4163579;28;20573;-81
2022/04/27 04:54:41;;;;;;;10.83;5.57;;;8.10;99.90;;;;;;4165573;28;20457;-80
2022/04/27 04:56:43;;;;;;;9.85;6.15;;;8.00;99.90;;;;;;4163128;28;20532;-81
2022/04/27 04:58:45;;;;;;;11.03;5.87;;;8.10;99.90;;;;;;4166165;28;20471;-80
2022/04/27 05:00:48;;;;;;;10.03;5.80;;;8.10;99.90;;;;;;4171089;28;20472;-79
2022/04/27 05:02:49;;;;;;;11.90;6.30;;;8.10;99.90;;;;;;4168853;28;20484;-80
2022/04/27 05:04:51;;;;;;;12.03;5.83;;;8.10;99.90;;;;;;4161493;28;20476;-80
2022/04/27 05:06:53;;;;;;;8.77;5.60;;;8.10;99.90;;;;;;4170058;28;20477;-80
2022/04/27 05:08:55;;;;;;;10.63;6.20;;;8.20;99.90;;;;;;4169107;28;20939;-80
2022/04/27 05:10:58;;;;;;;8.73;5.00;;;8.20;99.90;;;;;;4172907;28;20477;-80
2022/04/27 05:13:00;;;;;;;8.57;5.17;;;8.30;99.90;;;;;;4171584;28;20473;-80
2022/04/27 05:15:02;;;;;;;9.10;5.10;;;8.40;99.90;;;;;;4167547;28;20449;-80
2022/04/27 05:17:04;;;;;;;11.10;5.93;;;8.40;99.90;;;;;;4165736;28;20487;-80
2022/04/27 05:19:06;;;;;;;10.30;5.83;;;8.40;99.90;;;;;;4165984;28;20457;-80
2022/04/27 05:21:08;;;;;;;9.00;5.63;;;8.40;99.90;;;;;;4166280;28;20542;-80
2022/04/27 05:23:11;;;;;;;9.33;5.40;;;8.50;99.90;;;;;;4149421;28;20462;-80
2022/04/27 05:25:13;;;;;;;9.63;5.23;;;8.50;99.90;;;;;;4163205;28;20473;-80
2022/04/27 05:27:17;;;;;;;7.97;4.87;;;8.60;99.90;;;;;;4165594;28;20515;-80
2022/04/27 05:31:57;;;;;;;8.70;5.13;;;8.70;99.90;;;;;;4161031;28;20525;-82
2022/04/27 05:33:59;;;;;;;9.33;5.17;;;8.70;99.90;;;;;;4163389;28;20833;-79
2022/04/27 05:36:03;;;;;;;8.27;4.60;;;8.80;99.90;;;;;;4157684;28;20461;-81
2022/04/27 05:38:05;;;;;;;10.33;5.27;;;8.80;99.90;;;;;;4160511;28;20961;-81
2022/04/27 05:40:10;;;;;;;6.83;4.90;;;8.90;99.90;;;;;;4159511;28;20469;-81
2022/04/27 05:42:11;;;;;;;10.97;5.00;;;8.90;99.90;;;;;;4164774;28;20505;-80
2022/04/27 05:44:15;;;;;;;8.23;4.87;;;9.00;99.90;;;;;;4165065;28;20261;-80
2022/04/27 05:46:16;;;;;;;7.40;4.90;;;9.00;99.90;;;;;;4161727;28;20216;-81
2022/04/27 05:48:18;;;;;;;10.37;5.37;;;9.10;99.90;;;;;;4167282;28;20481;-80
2022/04/27 05:50:20;;;;;;;8.20;5.00;;;9.20;99.90;;;;;;4166586;28;20207;-80
2022/04/27 05:52:22;;;;;;;7.23;4.83;;;9.20;99.90;;;;;;4164701;28;20485;-80
2022/04/27 05:54:24;;;;;;;8.97;4.93;;;9.20;99.90;;;;;;4161896;28;20504;-82
2022/04/27 05:56:26;;;;;;;7.77;4.60;;;9.20;99.90;;;;;;4160151;28;20276;-82
2022/04/27 05:58:28;;;;;;;9.23;5.30;;;9.30;99.90;;;;;;4159717;28;20493;-81
2022/04/27 06:00:31;;;;;;;7.63;4.87;;;9.60;99.90;;;;;;4166002;28;20286;-82
2022/04/27 06:02:33;;;;;;;9.47;5.30;;;9.40;99.90;;;;;;4152515;28;20231;-81
2022/04/27 06:04:34;;;;;;;9.13;5.17;;;9.40;99.90;;;;;;4166701;28;20512;-82
2022/04/27 06:06:36;;;;;;;8.10;5.07;;;9.50;99.90;;;;;;4163571;28;20214;-81
2022/04/27 06:08:38;;;;;;;9.27;5.50;;;9.50;99.90;;;;;;4162326;28;20203;-81
2022/04/27 06:10:39;;;;;;;9.10;4.93;;;9.60;99.90;;;;;;4158347;28;20209;-81
2022/04/27 06:12:46;;;;;;;8.00;5.70;;;9.60;99.90;;;;;;4164545;28;20454;-81
2022/04/27 06:14:48;;;;;;;10.83;4.57;;;9.70;99.90;;;;;;4157327;28;20458;-81
2022/04/27 06:16:51;;;;;;;8.10;5.33;;;9.70;99.90;;;;;;4166936;28;20223;-81
2022/04/27 06:18:53;;;;;;;10.17;5.47;;;10.20;99.90;;;;;;4168025;28;20223;-82
2022/04/27 06:20:56;;;;;;;7.20;5.00;;;9.80;99.90;;;;;;4165725;28;20203;-81
2022/04/27 06:22:58;;;;;;;8.80;5.23;;;9.90;99.90;;;;;;4167259;28;20286;-80
2022/04/27 06:25:00;;;;;;;7.47;4.80;;;10.40;99.90;;;;;;4165610;28;20474;-81
2022/04/27 06:27:01;;;;;;;12.37;5.10;;;10.00;99.90;;;;;;4162605;28;20226;-81
2022/04/27 06:29:04;;;;;;;8.27;5.03;;;10.00;99.90;;;;;;4170272;28;20215;-83
2022/04/27 06:31:05;;;;;;;6.87;4.40;;;10.10;99.90;;;;;;4170564;28;20211;-81
2022/04/27 06:33:09;;;;;;;9.67;5.47;;;10.20;99.90;;;;;;4168348;28;20238;-82
2022/04/27 06:35:13;;;;;;;15.90;5.30;;;10.20;99.90;;;;;;4170681;28;20309;-82
2022/04/27 06:37:15;;;;;;;7.83;4.93;;;10.30;99.90;;;;;;4157577;28;20696;-82
2022/04/27 06:39:18;;;;;;;12.20;5.17;;;10.30;99.90;;;;;;4170670;28;20297;-83
2022/04/27 06:41:19;;;;;;;12.47;6.00;;;10.40;99.90;;;;;;4171574;28;20211;-82
2022/04/27 06:43:24;;;;;;;8.73;5.67;;;10.40;99.90;;;;;;4169504;28;20827;-80
2022/04/27 06:45:27;;;;;;;9.30;5.30;;;10.40;99.90;;;;;;4171992;28;20215;-81
2022/04/27 06:47:29;;;;;;;9.83;5.87;;;10.50;99.90;;;;;;4160869;28;20208;-82
2022/04/27 06:49:32;;;;;;;9.47;5.10;;;10.50;99.90;;;;;;4166529;28;20224;-82
2022/04/27 06:51:37;;;;;;;8.03;5.37;;;10.60;99.90;;;;;;4164035;28;20235;-80
2022/04/27 06:53:38;;;;;;;9.27;5.40;;;10.60;99.90;;;;;;4169767;28;20715;-81
2022/04/27 06:55:40;;;;;;;10.00;5.47;;;10.60;99.90;;;;;;4168339;28;20742;-81
2022/04/27 06:57:42;;;;;;;7.57;5.03;;;10.70;99.90;;;;;;4166867;28;20241;-80
2022/04/27 06:59:44;;;;;;;8.40;5.50;;;10.70;99.90;;;;;;4159779;28;20275;-80
2022/04/27 07:01:46;;;;;;;11.23;5.90;;;11.20;99.90;;;;;;4163708;28;20258;-81
2022/04/27 07:03:53;;;;;;;10.10;5.83;;;10.80;99.90;;;;;;4167236;28;20220;-80
2022/04/27 07:05:56;;;;;;;8.90;5.33;;;10.80;99.90;;;;;;4170545;28;20218;-81
2022/04/27 07:08:00;;;;;;;8.70;5.57;;;10.80;99.90;;;;;;4165697;28;20215;-80
2022/04/27 07:10:02;;;;;;;10.20;5.40;;;10.80;99.90;;;;;;4166519;28;20711;-80
2022/04/27 07:12:05;;;;;;;9.00;5.77;;;10.80;99.90;;;;;;4170921;28;20234;-80
2022/04/27 07:14:08;;;;;;;12.87;5.60;;;10.80;99.90;;;;;;4167501;28;20224;-81
2022/04/27 07:16:10;;;;;;;8.30;5.23;;;10.80;99.90;;;;;;4171417;28;20782;-80
2022/04/27 07:18:12;;;;;;;10.97;5.43;;;10.80;99.90;;;;;;4169581;28;20342;-80
2022/04/27 07:20:14;;;;;;;9.17;5.27;;;11.10;99.90;;;;;;4167762;28;20243;-80
2022/04/27 07:22:17;;;;;;;9.00;4.97;;;10.90;99.90;;;;;;4164966;28;20244;-79
2022/04/27 07:24:20;;;;;;;9.77;5.17;;;11.00;99.90;;;;;;4157226;28;20212;-79
2022/04/27 07:26:22;;;;;;;7.73;5.00;;;11.00;99.90;;;;;;4155331;28;20230;-78
2022/04/27 07:28:23;;;;;;;13.63;6.63;;;11.10;99.90;;;;;;4157828;28;20212;-77
2022/04/27 07:30:26;;;;;;;8.63;5.50;;;11.10;99.90;;;;;;4162531;28;20212;-78
2022/04/27 07:32:27;;;;;;;7.47;5.30;;;11.20;99.90;;;;;;4162267;28;20232;-78
2022/04/27 07:34:30;;;;;;;9.70;5.37;;;11.30;99.90;;;;;;4157377;28;20224;-78
2022/04/27 07:36:31;;;;;;;8.57;4.77;;;11.30;99.90;;;;;;4157264;28;20217;-78
2022/04/27 07:38:35;;;;;;;7.67;4.80;;;11.50;99.90;;;;;;4157490;28;20615;-78
2022/04/27 07:40:37;;;;;;;7.60;5.23;;;11.50;99.90;;;;;;4161090;28;20213;-78
2022/04/27 07:42:40;;;;;;;10.80;5.10;;;11.70;99.90;;;;;;4160209;28;20375;-79
2022/04/27 07:44:41;;;;;;;11.80;5.27;;;11.70;99.90;;;;;;4162512;28;20217;-79
2022/04/27 07:46:47;;;;;;;8.17;4.73;;;11.90;99.90;;;;;;4161369;28;20217;-80
2022/04/27 07:48:51;;;;;;;7.67;4.70;;;12.00;99.90;;;;;;4160356;28;20793;-79
2022/04/27 07:50:53;;;;;;;9.60;5.47;;;12.10;99.90;;;;;;4156888;28;20246;-79
2022/04/27 07:52:57;;;;;;;11.50;5.30;;;12.20;99.90;;;;;;4155832;28;20610;-79
2022/04/27 07:55:01;;;;;;;7.70;4.83;;;12.30;99.90;;;;;;4157970;28;20272;-80
2022/04/27 07:57:02;;;;;;;9.37;5.43;;;12.40;99.90;;;;;;4158972;28;20284;-79
2022/04/27 07:59:04;;;;;;;12.33;5.43;;;12.50;99.90;;;;;;4157759;28;20235;-79
2022/04/27 08:01:06;;;;;;;12.30;5.10;;;12.60;99.90;;;;;;4158693;28;20238;-80
2022/04/27 08:03:16;;;;;;;8.37;5.23;;;12.70;99.10;;;;;;4156947;28;20733;-80
2022/04/27 08:05:18;;;;;;;8.57;4.83;;;13.00;97.80;;;;;;4154012;28;20264;-80
2022/04/27 08:07:20;;;;;;;9.63;5.17;;;12.90;97.30;;;;;;4160763;28;20210;-81
2022/04/27 08:09:22;;;;;;;13.23;5.30;;;13.40;96.80;;;;;;4157695;28;20210;-80
2022/04/27 08:11:25;;;;;;;10.20;5.40;;;13.20;96.10;;;;;;4153043;28;20223;-80
2022/04/27 08:13:27;;;;;;;11.13;6.13;;;13.10;95.70;;;;;;4161214;28;20222;-79
2022/04/27 08:15:29;;;;;;;11.30;5.37;;;13.10;93.50;;;;;;4155287;28;20272;-80
2022/04/27 08:17:31;;;;;;;10.40;5.33;;;13.20;93.60;;;;;;4155840;28;20220;-79
2022/04/27 08:19:33;;;;;;;8.57;4.90;;;13.20;93.40;;;;;;4157469;28;20234;-79
2022/04/27 08:21:33;;;;;;;10.27;5.00;;;13.20;92.80;;;;;;4156814;28;20246;-80
2022/04/27 08:23:37;;;;;;;7.03;4.93;;;13.20;92.60;;;;;;4162505;28;20268;-79
2022/04/27 08:25:39;;;;;;;9.43;5.40;;;13.20;92.00;;;;;;4161136;28;20210;-80
2022/04/27 08:27:43;;;;;;;9.77;5.40;;;13.20;90.30;;;;;;4156957;28;20253;-81
2022/04/27 08:29:44;;;;;;;7.63;4.83;;;13.10;87.90;;;;;;4161696;28;20238;-80
2022/04/27 08:31:46;;;;;;;9.33;5.60;;;13.00;87.20;;;;;;4156085;28;20320;-80
2022/04/27 08:33:48;;;;;;;9.57;5.37;;;13.00;88.70;;;;;;4154846;28;20266;-79
2022/04/27 08:35:50;;;;;;;11.07;5.67;;;12.90;89.30;;;;;;4152329;28;20223;-80
2022/04/27 08:37:52;;;;;;;9.13;5.30;;;12.90;90.50;;;;;;4152701;28;20217;-79
2022/04/27 08:39:54;;;;;;;8.73;5.20;;;12.90;90.80;;;;;;4144647;28;20226;-81
2022/04/27 08:41:55;;;;;;;7.80;5.20;;;12.90;90.50;;;;;;4150852;28;20711;-81
2022/04/27 08:43:58;;;;;;;13.47;5.27;;;12.90;90.50;;;;;;4159692;28;20639;-81
2022/04/27 08:46:03;;;;;;;7.73;5.27;;;12.90;90.90;;;;;;4160870;28;20217;-80
2022/04/27 08:48:05;;;;;;;9.83;5.40;;;12.90;91.70;;;;;;4156467;28;20248;-79
2022/04/27 08:50:13;;;;;;;10.63;5.20;;;12.90;91.80;;;;;;4152597;28;20213;-81
2022/04/27 08:52:17;;;;;;;9.33;5.63;;;12.90;90.90;;;;;;4156841;28;20384;-80
2022/04/27 08:54:19;;;;;;;10.30;5.13;;;12.90;90.10;;;;;;4158273;28;20273;-81
2022/04/27 08:56:23;;;;;;;8.90;5.33;;;13.00;86.40;;;;;;4155402;28;20297;-81
2022/04/27 08:58:25;;;;;;;7.20;4.40;;;13.00;85.80;;;;;;4160038;28;20289;-81
2022/04/27 09:00:28;;;;;;;9.50;4.57;;;13.00;84.00;;;;;;4157200;28;20289;-79
2022/04/27 09:02:31;;;;;;;6.33;4.13;;;13.00;83.80;;;;;;4159136;28;20269;-79
2022/04/27 09:04:33;;;;;;;7.53;4.23;;;13.10;82.80;;;;;;4161674;28;20219;-79
2022/04/27 09:06:38;;;;;;;6.17;3.57;;;13.10;80.30;;;;;;4162605;28;20265;-79
2022/04/27 09:08:41;;;;;;;8.70;4.30;;;13.10;77.20;;;;;;4159375;28;20664;-79
2022/04/27 09:10:43;;;;;;;6.00;4.20;;;13.20;76.60;;;;;;4161885;28;20218;-79
2022/04/27 09:12:47;;;;;;;7.23;4.23;;;13.20;74.60;;;;;;4160581;28;20231;-80
2022/04/27 09:14:49;;;;;;;6.87;4.00;;;13.30;72.40;;;;;;4154867;28;20661;-79
2022/04/27 09:21:58;;;;;;;8.70;4.20;;;13.40;65.90;;;;;;4154082;28;20252;-79
2022/04/27 09:24:04;;;;;;;8.47;3.83;;;13.50;61.20;;;;;;4160094;28;20717;-78
2022/04/27 09:26:17;;;;;;;6.10;3.80;;;13.50;60.40;;;;;;4158494;28;20778;-80
2022/04/27 09:28:22;;;;;;;6.80;3.47;;;13.60;58.40;;;;;;4156628;28;20223;-79
2022/04/27 09:30:27;;;;;;;5.40;3.50;;;13.60;57.50;;;;;;4147559;28;20301;-80
2022/04/27 09:32:30;;;;;;;8.00;3.80;;;13.70;57.60;;;;;;4155623;28;20919;-80
2022/04/27 09:34:44;;;;;;;5.50;3.47;;;13.80;57.50;;;;;;4158937;28;20230;-79
2022/04/27 09:36:46;;;;;;;5.87;3.60;;;13.80;57.90;;;;;;4154737;28;20204;-77
2022/04/27 09:38:48;;;;;;;8.33;4.10;;;13.90;57.20;;;;;;4152729;28;20344;-78
2022/04/27 09:40:52;;;;;;;5.60;3.37;;;14.00;56.80;;;;;;4157851;28;20215;-79
2022/04/27 09:42:59;;;;;;;6.40;4.00;;;14.00;57.80;;;;;;4154669;28;20248;-80
2022/04/27 09:45:16;;;;;;;8.03;3.87;;;14.10;57.10;;;;;;4158928;28;20222;-79
2022/04/27 09:47:22;;;;;;;6.77;3.63;;;14.20;57.90;;;;;;4161096;28;20294;-77
2022/04/27 09:49:27;;;;;;;5.70;4.07;;;14.30;58.10;;;;;;4157233;28;20203;-78
2022/04/27 09:51:29;;;;;;;7.57;3.63;;;14.30;58.80;;;;;;4156823;28;20229;-80
2022/04/27 09:53:32;;;;;;;9.10;3.83;;;14.40;58.90;;;;;;4156952;28;20518;-79
2022/04/27 09:55:34;;;;;;;7.97;3.93;;;14.50;59.20;;;;;;4155418;28;20224;-80
2022/04/27 09:57:39;;;;;;;9.97;4.23;;;14.50;58.30;;;;;;4154791;28;20218;-80
2022/04/27 09:59:42;;;;;;;7.30;4.30;;;14.60;56.50;;;;;;4147045;28;20228;-78
2022/04/27 10:01:45;;;;;;;8.67;3.30;;;14.70;54.80;;;;;;4155627;28;20247;-79
2022/04/27 10:03:48;;;;;;;6.47;3.00;;;14.70;52.90;;;;;;4154898;28;20769;-78
2022/04/27 10:05:52;;;;;;;3.97;2.63;;;14.80;52.40;;;;;;4147203;28;20241;-78
2022/04/27 10:07:55;;;;;;;5.20;3.00;;;14.60;52.00;;;;;;4158255;28;20261;-78
2022/04/27 10:09:58;;;;;;;5.70;2.87;;;15.20;52.60;;;;;;4159308;28;20248;-79
2022/04/27 10:12:06;;;;;;;5.13;3.20;;;14.90;51.00;;;;;;4156495;28;20483;-78
2022/04/27 10:14:08;;;;;;;7.93;3.80;;;15.30;51.80;;;;;;4160531;28;20237;-79
2022/04/27 10:16:10;;;;;;;5.10;3.40;;;15.20;51.00;;;;;;4164490;28;20214;-78
2022/04/27 10:18:15;;;;;;;8.77;4.00;;;15.30;50.20;;;;;;4162253;28;20566;-76
2022/04/27 10:20:31;;;;;;;5.57;3.70;;;15.40;49.10;;;;;;4154291;28;20246;-79
2022/04/27 10:22:35;;;;;;;3.90;2.87;;;15.50;49.70;;;;;;4159175;28;20281;-79
2022/04/27 10:24:50;;;;;;;6.00;3.13;;;15.60;50.50;;;;;;4151436;28;20258;-78
2022/04/27 10:26:51;;;;;;;5.27;3.10;;;15.80;50.70;;;;;;4151423;28;20592;-75
2022/04/27 10:28:56;;;;;;;4.40;3.00;;;15.90;48.50;;;;;;4152871;28;20207;-76
2022/04/27 10:31:01;;;;;;;4.83;3.07;;;16.00;47.50;;;;;;4152881;28;20306;-77
2022/04/27 10:33:02;;;;;;;4.40;2.87;;;16.20;47.20;;;;;;4156380;28;20234;-76
2022/04/27 10:35:17;;;;;;;6.07;3.63;;;16.30;47.10;;;;;;4155121;28;20230;-78
2022/04/27 10:37:47;;;;;;;5.77;3.10;;;16.50;46.60;;;;;;4153480;28;20217;-77
2022/04/27 10:39:49;;;;;;;5.53;3.30;;;16.60;45.90;;;;;;4146702;28;20735;-78
2022/04/27 10:42:32;;;;;;;9.90;3.33;;;16.70;45.90;;;;;;4150508;28;20302;-77
2022/04/27 10:45:10;;;;;;;6.40;3.60;;;16.80;45.50;;;;;;4156786;28;20215;-80
2022/04/27 10:47:14;;;;;;;5.70;3.40;;;17.00;44.90;;;;;;4155799;28;20222;-81
2022/04/27 10:49:23;;;;;;;5.10;2.80;;;17.10;44.20;;;;;;4156734;28;20654;-80
2022/04/27 10:51:25;;;;;;;5.93;3.07;;;17.20;43.60;;;;;;4156125;28;20216;-80
2022/04/27 10:53:28;;;;;;;4.80;3.20;;;17.40;43.70;;;;;;4159338;28;20207;-81
2022/04/27 10:55:54;;;;;;;5.73;3.43;;;17.50;43.40;;;;;;4156766;28;20576;-80
2022/04/27 10:58:12;;;;;;;6.87;3.40;;;17.60;42.30;;;;;;4141081;28;20227;-80
2022/04/27 11:00:16;;;;;;;6.27;3.30;;;17.70;42.40;;;;;;4152875;28;21192;-80